Terminal Aerodrome Forecast
Issued by NWS Wilmington, OH

Current Version | Previous Version | Graphics & Text | Print | Product List | Glossary On
Versions: 1 2 3 4 5 6 7 8 9 10 11 12 13 14 15 16
000
FTUS41 KILN 282300
TAFCMH
TAF
KCMH 282335Z 2900/2924 33005KT P6SM SCT025 BKN035
     FM290400 01004KT P6SM FEW025 SCT250
     FM291400 03008KT P6SM SCT025 BKN250
     FM292300 03006KT P6SM SCT025=

USA.gov is the U.S. government's official web portal to all federal, state and local government web resources and services.